createdAt,value
2018-06-08T00:01:26.880Z,4.73
2018-06-08T00:03:55.729Z,4.63
2018-06-08T00:06:24.566Z,5.47
2018-06-08T00:08:53.418Z,5.00
2018-06-08T00:11:22.239Z,5.10
2018-06-08T00:13:51.062Z,4.70
2018-06-08T00:16:19.898Z,5.10
2018-06-08T00:18:48.715Z,5.00
2018-06-08T00:21:17.589Z,5.10
2018-06-08T00:23:46.222Z,4.57
2018-06-08T00:26:15.080Z,4.67
2018-06-08T00:28:43.914Z,4.13
2018-06-08T00:31:12.733Z,4.00
2018-06-08T00:33:41.345Z,4.87
2018-06-08T00:36:10.056Z,4.37
2018-06-08T00:38:38.882Z,4.63
2018-06-08T00:41:07.725Z,4.83
2018-06-08T00:43:36.554Z,4.17
2018-06-08T00:46:05.738Z,4.50
2018-06-08T00:48:34.578Z,4.73
2018-06-08T00:51:03.386Z,3.97
2018-06-08T00:53:32.221Z,4.60
2018-06-08T00:56:01.046Z,5.07
2018-06-08T00:58:29.910Z,3.97
2018-06-08T01:00:58.754Z,3.87
2018-06-08T01:03:27.581Z,4.63
2018-06-08T01:05:56.426Z,4.40
2018-06-08T01:08:25.245Z,4.13
2018-06-08T01:10:54.105Z,3.77
2018-06-08T01:13:22.930Z,4.70
2018-06-08T01:15:51.803Z,3.87
2018-06-08T01:18:20.654Z,4.13
2018-06-08T01:20:49.482Z,4.17
2018-06-08T01:23:18.330Z,4.30
2018-06-08T01:25:47.163Z,4.13
2018-06-08T01:28:15.982Z,4.30
2018-06-08T01:30:44.803Z,3.90
2018-06-08T01:33:13.641Z,4.00
2018-06-08T01:35:42.510Z,4.00
2018-06-08T01:38:11.322Z,3.60
2018-06-08T01:40:40.174Z,3.63
2018-06-08T01:43:09.238Z,3.93
2018-06-08T01:45:38.082Z,9.17
2018-06-08T01:48:06.956Z,11.37
2018-06-08T01:50:35.782Z,14.37
2018-06-08T01:53:04.727Z,16.23
2018-06-08T01:55:33.593Z,16.07
2018-06-08T01:58:02.421Z,15.23
2018-06-08T02:00:31.270Z,16.13
2018-06-08T02:03:00.190Z,16.50
2018-06-08T02:05:29.026Z,16.30
2018-06-08T02:07:57.858Z,14.20
2018-06-08T02:10:26.700Z,18.07
2018-06-08T02:12:55.577Z,16.83
2018-06-08T02:15:24.410Z,18.97
2018-06-08T02:17:53.254Z,18.00
2018-06-08T02:20:22.513Z,18.27
2018-06-08T02:22:51.310Z,18.03
2018-06-08T02:25:20.178Z,17.13
2018-06-08T02:27:49.694Z,17.40
2018-06-08T02:30:18.550Z,18.73
2018-06-08T02:32:48.606Z,18.77
2018-06-08T02:35:17.493Z,19.20
2018-06-08T02:37:46.389Z,19.47
2018-06-08T02:40:15.780Z,19.17
2018-06-08T02:42:44.671Z,17.73
2018-06-08T02:45:13.521Z,18.97
2018-06-08T02:47:44.739Z,19.57
2018-06-08T02:50:13.722Z,19.53
2018-06-08T02:52:42.610Z,19.37
2018-06-08T02:55:11.600Z,15.30
2018-06-08T02:57:40.451Z,18.90
2018-06-08T03:00:09.326Z,15.73
2018-06-08T03:02:38.214Z,18.57
2018-06-08T03:05:07.080Z,16.47
2018-06-08T03:07:37.302Z,19.93
2018-06-08T03:10:06.155Z,19.03
2018-06-08T03:12:35.079Z,18.40
2018-06-08T03:15:03.991Z,18.33
2018-06-08T03:17:34.545Z,20.53
2018-06-08T03:20:03.694Z,18.70
2018-06-08T03:22:33.538Z,18.97
2018-06-08T03:25:02.432Z,18.57
2018-06-08T03:27:31.327Z,20.30
2018-06-08T03:30:00.138Z,19.17
2018-06-08T03:32:28.982Z,20.80
2018-06-08T03:34:57.885Z,18.47
2018-06-08T03:37:26.730Z,19.03
2018-06-08T03:39:55.582Z,20.30
2018-06-08T03:42:24.545Z,19.57
2018-06-08T03:44:53.409Z,19.53
2018-06-08T03:47:22.392Z,17.80
2018-06-08T03:49:51.269Z,18.57
2018-06-08T03:52:20.159Z,18.73
2018-06-08T03:54:48.859Z,18.60
2018-06-08T03:57:17.646Z,19.77
2018-06-08T03:59:46.542Z,17.97
2018-06-08T04:02:15.631Z,19.70
2018-06-08T04:04:44.494Z,16.83
2018-06-08T04:07:13.136Z,18.33
2018-06-08T04:09:41.871Z,18.87
2018-06-08T04:12:10.515Z,18.47
2018-06-08T04:14:39.278Z,16.90
2018-06-08T04:17:08.102Z,19.40
2018-06-08T04:19:37.156Z,17.20
2018-06-08T04:22:05.994Z,18.47
2018-06-08T04:24:34.849Z,17.60
2018-06-08T04:27:03.698Z,20.23
2018-06-08T04:29:32.586Z,18.30
2018-06-08T04:32:01.248Z,19.53
2018-06-08T04:34:29.969Z,19.43
2018-06-08T04:36:58.830Z,19.97
2018-06-08T04:39:27.678Z,20.57
2018-06-08T04:41:56.587Z,20.17
2018-06-08T04:44:25.441Z,19.60
2018-06-08T04:46:54.315Z,20.53
2018-06-08T04:49:23.258Z,19.47
2018-06-08T04:51:52.110Z,19.50
2018-06-08T04:54:21.921Z,18.80
2018-06-08T04:56:52.520Z,19.73
2018-06-08T04:59:21.553Z,19.53
2018-06-08T05:01:50.413Z,17.70
2018-06-08T05:04:19.458Z,20.37
2018-06-08T05:06:48.427Z,20.63
2018-06-08T05:09:17.442Z,20.33
2018-06-08T05:11:46.642Z,19.50
2018-06-08T05:14:15.522Z,18.00
2018-06-08T05:16:44.406Z,18.97
2018-06-08T05:19:13.612Z,19.83
2018-06-08T05:21:42.558Z,21.50
2018-06-08T05:24:11.740Z,13.00
2018-06-08T05:26:40.666Z,12.03
2018-06-08T05:29:10.147Z,11.97
2018-06-08T05:31:39.007Z,11.27
2018-06-08T05:34:07.862Z,10.20
2018-06-08T05:36:36.841Z,11.40
2018-06-08T05:39:08.147Z,9.43
2018-06-08T05:41:37.097Z,9.63
2018-06-08T05:44:06.030Z,8.60
2018-06-08T05:46:34.904Z,8.47
2018-06-08T05:49:03.728Z,9.07
2018-06-08T05:51:32.582Z,9.10
2018-06-08T05:54:01.217Z,8.50
2018-06-08T05:56:29.954Z,9.27
2018-06-08T05:58:58.570Z,8.23
2018-06-08T06:01:27.320Z,8.30
2018-06-08T06:03:56.323Z,8.17
2018-06-08T06:06:24.992Z,8.47
2018-06-08T06:08:53.707Z,9.67
2018-06-08T06:11:22.559Z,8.77
2018-06-08T06:13:51.413Z,8.63
2018-06-08T06:16:20.330Z,8.83
2018-06-08T06:18:49.178Z,8.73
2018-06-08T06:21:18.015Z,8.20
2018-06-08T06:23:46.844Z,8.30
2018-06-08T06:26:15.740Z,8.23
2018-06-08T06:28:44.568Z,8.73
2018-06-08T06:31:13.410Z,7.47
2018-06-08T06:33:42.231Z,14.67
2018-06-08T06:36:11.092Z,18.43
2018-06-08T06:38:40.659Z,18.60
2018-06-08T06:41:09.510Z,13.57
2018-06-08T06:43:38.350Z,14.17
2018-06-08T06:46:06.977Z,19.53
2018-06-08T06:48:35.682Z,16.00
2018-06-08T06:51:04.571Z,11.80
2018-06-08T06:53:33.419Z,16.73
2018-06-08T06:56:02.246Z,13.60
2018-06-08T06:58:31.088Z,17.90
2018-06-08T07:00:59.933Z,14.57
2018-06-08T07:03:28.774Z,17.47
2018-06-08T07:05:57.619Z,16.87
2018-06-08T07:08:26.482Z,17.60
2018-06-08T07:10:55.350Z,15.50
2018-06-08T07:13:24.325Z,17.60
2018-06-08T07:15:53.171Z,18.53
2018-06-08T07:18:22.002Z,16.60
2018-06-08T07:20:50.834Z,17.30
2018-06-08T07:23:19.695Z,14.43
2018-06-08T07:25:48.522Z,14.27
2018-06-08T07:28:17.394Z,13.73
2018-06-08T07:30:46.221Z,13.80
2018-06-08T07:33:15.078Z,15.47
2018-06-08T07:35:43.894Z,14.77
2018-06-08T07:38:12.719Z,15.97
2018-06-08T07:40:41.579Z,15.20
2018-06-08T07:43:10.458Z,15.50
2018-06-08T07:45:39.468Z,16.03
2018-06-08T07:48:08.163Z,15.67
2018-06-08T07:50:36.876Z,14.67
2018-06-08T07:53:06.070Z,15.97
2018-06-08T07:55:34.894Z,9.60
2018-06-08T07:58:03.725Z,7.93
2018-06-08T08:00:32.571Z,7.40
2018-06-08T08:03:01.386Z,8.13
2018-06-08T08:05:30.363Z,7.17
2018-06-08T08:07:59.153Z,7.00
2018-06-08T08:10:28.083Z,6.70
2018-06-08T08:12:57.000Z,6.37
2018-06-08T08:15:25.818Z,6.30
2018-06-08T08:17:54.670Z,6.27
2018-06-08T08:20:23.495Z,6.63
2018-06-08T08:22:52.343Z,6.83
2018-06-08T08:25:21.178Z,5.97
2018-06-08T08:27:49.817Z,6.00
2018-06-08T08:30:18.543Z,5.77
2018-06-08T08:32:47.458Z,6.20
2018-06-08T08:35:16.322Z,6.30
2018-06-08T08:37:45.166Z,6.00
2018-06-08T08:40:14.167Z,6.20
2018-06-08T08:42:43.024Z,5.50
2018-06-08T08:45:11.870Z,5.50
2018-06-08T08:47:40.733Z,6.03
2018-06-08T08:50:09.567Z,6.10
2018-06-08T08:52:38.409Z,5.23
2018-06-08T08:55:07.242Z,6.13
2018-06-08T08:57:35.870Z,5.37
2018-06-08T09:00:04.626Z,5.30
2018-06-08T09:02:33.478Z,5.73
2018-06-08T09:05:02.311Z,5.23
2018-06-08T09:07:31.134Z,5.27
2018-06-08T09:09:59.959Z,5.30
2018-06-08T09:12:28.814Z,5.40
2018-06-08T09:14:57.666Z,4.67
2018-06-08T09:17:26.511Z,5.23
2018-06-08T09:19:55.358Z,6.07
2018-06-08T09:22:24.201Z,5.30
2018-06-08T09:24:53.093Z,5.40
2018-06-08T09:27:21.965Z,5.07
2018-06-08T09:29:50.765Z,5.70
2018-06-08T09:32:19.603Z,5.63
2018-06-08T09:34:48.454Z,5.27
2018-06-08T09:37:17.284Z,4.93
2018-06-08T09:39:46.185Z,5.33
2018-06-08T09:42:15.050Z,5.80
2018-06-08T09:44:43.901Z,5.17
2018-06-08T09:47:12.765Z,5.17
2018-06-08T09:49:41.981Z,4.97
2018-06-08T09:52:10.989Z,5.23
2018-06-08T09:54:39.618Z,5.27
2018-06-08T09:57:08.346Z,5.40
2018-06-08T09:59:37.186Z,4.80
2018-06-08T10:02:06.014Z,5.37
2018-06-08T10:04:35.127Z,4.43
2018-06-08T10:07:04.007Z,4.63
2018-06-08T10:09:32.839Z,4.93
2018-06-08T10:12:01.688Z,5.13
2018-06-08T10:14:30.556Z,4.83
2018-06-08T10:16:59.617Z,4.70
2018-06-08T10:19:28.454Z,4.93
2018-06-08T10:21:57.314Z,4.73
2018-06-08T10:24:26.131Z,4.93
2018-06-08T10:26:54.978Z,6.07
2018-06-08T10:29:23.847Z,5.80
2018-06-08T10:31:52.669Z,5.90
2018-06-08T10:34:23.065Z,4.80
2018-06-08T10:36:51.970Z,5.10
2018-06-08T10:39:20.810Z,5.00
2018-06-08T10:41:49.630Z,5.20
2018-06-08T10:44:18.455Z,5.20
2018-06-08T10:46:47.307Z,4.77
2018-06-08T10:49:16.130Z,5.00
2018-06-08T10:51:44.982Z,4.87
2018-06-08T10:54:13.848Z,4.93
2018-06-08T10:56:42.702Z,5.30
2018-06-08T10:59:11.562Z,5.43
2018-06-08T11:01:40.423Z,4.80
2018-06-08T11:04:09.254Z,4.90
2018-06-08T11:06:38.133Z,5.47
2018-06-08T11:09:08.330Z,5.13
2018-06-08T11:11:37.173Z,4.77
2018-06-08T11:14:06.062Z,4.70
2018-06-08T11:16:34.899Z,4.30
2018-06-08T11:19:03.734Z,5.43
2018-06-08T11:21:32.572Z,5.30
2018-06-08T11:24:01.411Z,4.60
2018-06-08T11:26:30.270Z,5.53
2018-06-08T11:28:59.120Z,4.50
2018-06-08T11:31:27.985Z,4.93
2018-06-08T11:33:56.799Z,4.73
2018-06-08T11:36:25.630Z,4.90
2018-06-08T11:38:54.476Z,5.40
2018-06-08T11:41:23.297Z,5.20
2018-06-08T11:43:52.137Z,5.10
2018-06-08T11:46:20.974Z,4.90
2018-06-08T11:48:49.831Z,4.47
2018-06-08T11:51:18.666Z,5.80
2018-06-08T11:53:47.550Z,4.70
2018-06-08T11:56:16.627Z,5.13
2018-06-08T11:58:45.450Z,8.37
2018-06-08T12:01:14.303Z,10.37
2018-06-08T12:03:43.134Z,10.30
2018-06-08T12:06:11.964Z,11.40
2018-06-08T12:08:40.814Z,10.73
2018-06-08T12:11:09.818Z,13.40
2018-06-08T12:13:38.619Z,14.20
2018-06-08T12:16:07.239Z,12.13
2018-06-08T12:18:35.946Z,12.43
2018-06-08T12:21:04.787Z,11.13
2018-06-08T12:23:33.678Z,13.23
2018-06-08T12:26:02.541Z,10.47
2018-06-08T12:28:31.430Z,11.13
2018-06-08T12:31:00.343Z,11.00
2018-06-08T12:33:29.178Z,10.87
2018-06-08T12:35:58.015Z,10.83
2018-06-08T12:38:26.661Z,10.87
2018-06-08T12:40:55.366Z,9.43
2018-06-08T12:43:24.194Z,11.33
2018-06-08T12:45:53.094Z,11.83
2018-06-08T12:48:21.917Z,10.20
2018-06-08T12:50:50.771Z,10.30
2018-06-08T12:53:19.762Z,10.70
2018-06-08T12:55:48.602Z,10.40
2018-06-08T12:58:17.419Z,8.23
2018-06-08T13:00:46.330Z,10.70
2018-06-08T13:03:15.243Z,8.70
2018-06-08T13:05:44.022Z,7.77
2018-06-08T13:08:12.857Z,8.80
2018-06-08T13:10:41.483Z,9.53
2018-06-08T13:13:10.194Z,11.03
2018-06-08T13:15:39.163Z,8.83
2018-06-08T13:18:07.730Z,7.70
2018-06-08T13:20:36.434Z,8.30
2018-06-08T13:23:05.310Z,10.50
2018-06-08T13:25:34.174Z,10.90
2018-06-08T13:28:03.004Z,9.00
2018-06-08T13:30:31.827Z,8.20
2018-06-08T13:33:00.675Z,8.27
2018-06-08T13:35:29.478Z,8.17
2018-06-08T13:37:58.353Z,8.57
2018-06-08T13:40:27.198Z,8.73
2018-06-08T13:42:55.821Z,8.07
2018-06-08T13:45:24.554Z,8.50
2018-06-08T13:47:53.169Z,8.90
2018-06-08T13:50:21.927Z,8.40
2018-06-08T13:52:50.784Z,9.17
2018-06-08T13:55:19.700Z,8.70
2018-06-08T13:57:48.614Z,8.33
2018-06-08T14:00:17.438Z,8.40
2018-06-08T14:02:46.294Z,9.17
2018-06-08T14:05:15.158Z,9.53
2018-06-08T14:07:44.018Z,8.23
2018-06-08T14:10:12.879Z,8.43
2018-06-08T14:12:41.783Z,8.53
2018-06-08T14:15:10.648Z,8.60
2018-06-08T14:17:39.510Z,7.90
2018-06-08T14:20:08.388Z,8.70
2018-06-08T14:22:37.232Z,8.20
2018-06-08T14:25:06.045Z,8.90
2018-06-08T14:27:35.088Z,7.30
2018-06-08T14:30:04.141Z,8.77
2018-06-08T14:32:32.970Z,8.37
2018-06-08T14:35:01.941Z,7.77
2018-06-08T14:37:30.601Z,7.70
2018-06-08T14:39:59.355Z,8.63
2018-06-08T14:42:28.250Z,9.87
2018-06-08T14:44:57.091Z,8.53
2018-06-08T14:47:25.931Z,9.47
2018-06-08T14:49:54.866Z,9.47
2018-06-08T14:52:23.714Z,10.23
2018-06-08T14:54:52.684Z,9.47
2018-06-08T14:57:21.547Z,9.13
2018-06-08T14:59:50.458Z,10.10
2018-06-08T15:02:19.445Z,9.20
2018-06-08T15:04:48.276Z,9.47
2018-06-08T15:07:17.124Z,10.23
2018-06-08T15:09:45.987Z,9.73
2018-06-08T15:12:14.627Z,9.83
2018-06-08T15:14:43.394Z,9.80
2018-06-08T15:17:12.276Z,7.83
2018-06-08T15:19:41.368Z,10.53
2018-06-08T15:22:10.226Z,9.57
2018-06-08T15:24:39.106Z,9.50
2018-06-08T15:27:08.006Z,7.70
2018-06-08T15:29:36.629Z,8.67
2018-06-08T15:32:05.430Z,9.53
2018-06-08T15:34:34.316Z,9.63
2018-06-08T15:37:03.170Z,9.07
2018-06-08T15:39:32.053Z,8.87
2018-06-08T15:42:00.694Z,7.53
2018-06-08T15:44:29.439Z,7.87
2018-06-08T15:46:58.317Z,8.83
2018-06-08T15:49:27.219Z,9.37
2018-06-08T15:51:56.090Z,9.70
2018-06-08T15:54:24.742Z,9.97
2018-06-08T15:56:53.552Z,8.13
2018-06-08T15:59:22.503Z,9.73
2018-06-08T16:01:51.396Z,9.27
2018-06-08T16:04:20.287Z,9.30
2018-06-08T16:06:49.203Z,9.60
2018-06-08T16:09:18.041Z,9.87
2018-06-08T16:11:49.390Z,10.13
2018-06-08T16:14:18.270Z,9.27
2018-06-08T16:16:47.139Z,7.30
2018-06-08T16:19:16.022Z,10.00
2018-06-08T16:21:44.919Z,9.93
2018-06-08T16:24:13.570Z,9.73
2018-06-08T16:26:42.298Z,9.27
2018-06-08T16:29:11.175Z,9.67
2018-06-08T16:31:40.006Z,9.53
2018-06-08T16:34:09.006Z,9.27
2018-06-08T16:36:37.981Z,7.93
2018-06-08T16:39:07.652Z,9.37
2018-06-08T16:41:36.491Z,8.37
2018-06-08T16:44:05.351Z,11.07
2018-06-08T16:46:34.278Z,16.50
2018-06-08T16:49:03.446Z,18.50
2018-06-08T16:51:32.406Z,16.90
2018-06-08T16:54:02.772Z,15.47
2018-06-08T16:56:32.555Z,13.80
2018-06-08T16:59:02.327Z,21.07
2018-06-08T17:01:31.199Z,22.40
2018-06-08T17:04:00.125Z,17.87
2018-06-08T17:06:28.994Z,16.67
2018-06-08T17:08:57.911Z,13.60
2018-06-08T17:11:26.549Z,16.33
2018-06-08T17:13:55.289Z,11.87
2018-06-08T17:16:24.258Z,12.30
2018-06-08T17:18:53.138Z,12.00
2018-06-08T17:21:22.019Z,11.17
2018-06-08T17:23:50.907Z,11.43
2018-06-08T17:26:19.725Z,10.20
2018-06-08T17:28:48.662Z,11.17
2018-06-08T17:31:17.597Z,11.50
2018-06-08T17:33:46.434Z,10.67
2018-06-08T17:36:15.339Z,9.83
2018-06-08T17:38:44.235Z,9.63
2018-06-08T17:41:13.150Z,10.10
2018-06-08T17:43:41.985Z,10.50
2018-06-08T17:46:10.883Z,10.70
2018-06-08T17:48:39.746Z,9.97
2018-06-08T17:51:08.691Z,10.60
2018-06-08T17:53:37.527Z,10.97
2018-06-08T17:56:06.458Z,10.87
2018-06-08T17:58:35.366Z,10.97
2018-06-08T18:01:04.272Z,9.97
2018-06-08T18:03:33.120Z,9.50
2018-06-08T18:06:02.017Z,10.90
2018-06-08T18:08:31.043Z,9.77
2018-06-08T18:10:59.914Z,9.33
2018-06-08T18:13:28.805Z,10.13
2018-06-08T18:15:57.668Z,11.10
2018-06-08T18:18:27.702Z,10.23
2018-06-08T18:20:59.872Z,10.43
2018-06-08T18:23:29.869Z,10.23
2018-06-08T18:26:00.821Z,10.50
2018-06-08T18:28:29.704Z,11.13
2018-06-08T18:30:58.601Z,10.33
2018-06-08T18:33:27.443Z,10.27
2018-06-08T18:35:56.288Z,10.40
2018-06-08T18:38:25.129Z,10.77
2018-06-08T18:40:53.988Z,10.73
2018-06-08T18:43:22.963Z,11.57
2018-06-08T18:45:51.799Z,9.03
2018-06-08T18:48:20.638Z,8.70
2018-06-08T18:50:49.664Z,10.17
2018-06-08T18:53:18.624Z,10.37
2018-06-08T18:55:48.078Z,9.27
2018-06-08T18:58:16.990Z,9.90
2018-06-08T19:00:45.842Z,11.53
2018-06-08T19:03:14.697Z,11.40
2018-06-08T19:05:46.239Z,10.27
2018-06-08T19:08:15.371Z,12.30
2018-06-08T19:10:44.222Z,9.60
2018-06-08T19:13:13.070Z,8.97
2018-06-08T19:15:41.936Z,10.00
2018-06-08T19:18:10.941Z,9.13
2018-06-08T19:20:39.599Z,10.07
2018-06-08T19:23:08.326Z,10.20
2018-06-08T19:25:37.226Z,9.90
2018-06-08T19:28:05.795Z,11.73
2018-06-08T19:30:34.535Z,11.73
2018-06-08T19:33:03.249Z,12.27
2018-06-08T19:35:34.491Z,12.28
2018-06-08T19:38:03.398Z,12.67
2018-06-08T19:40:32.442Z,13.80
2018-06-08T19:43:01.468Z,12.30
2018-06-08T19:45:30.113Z,15.00
2018-06-08T19:47:58.871Z,13.50
2018-06-08T19:50:27.728Z,14.03
2018-06-08T19:52:56.676Z,13.90
2018-06-08T19:55:25.558Z,13.13
2018-06-08T19:57:54.396Z,12.57
2018-06-08T20:00:23.263Z,12.60
2018-06-08T20:02:52.103Z,13.73
2018-06-08T20:05:21.074Z,12.47
2018-06-08T20:07:49.957Z,11.70
2018-06-08T20:10:18.579Z,12.27
2018-06-08T20:12:47.396Z,13.20
2018-06-08T20:15:16.178Z,13.33
2018-06-08T20:17:45.020Z,14.47
2018-06-08T20:20:14.306Z,13.67
2018-06-08T20:22:43.270Z,14.53
2018-06-08T20:25:12.094Z,14.53
2018-06-08T20:27:41.098Z,13.17
2018-06-08T20:30:09.949Z,15.50
2018-06-08T20:32:38.597Z,11.53
2018-06-08T20:35:07.328Z,14.10
2018-06-08T20:37:36.214Z,13.43
2018-06-08T20:40:05.474Z,12.87
2018-06-08T20:42:34.387Z,13.60
2018-06-08T20:45:03.238Z,13.03
2018-06-08T20:47:32.080Z,13.67
2018-06-08T20:50:00.968Z,12.23
2018-06-08T20:52:29.587Z,15.07
2018-06-08T20:54:58.306Z,13.73
2018-06-08T20:57:28.168Z,14.10
2018-06-08T20:59:56.993Z,13.70
2018-06-08T21:02:25.852Z,14.83
2018-06-08T21:04:56.778Z,14.80
2018-06-08T21:07:26.868Z,13.50
2018-06-08T21:09:55.766Z,15.57
2018-06-08T21:12:24.668Z,14.70
2018-06-08T21:14:53.506Z,14.97
2018-06-08T21:17:24.423Z,12.67
2018-06-08T21:19:57.012Z,13.33
2018-06-08T21:22:26.862Z,12.17
2018-06-08T21:24:55.766Z,12.40
2018-06-08T21:27:24.671Z,14.47
2018-06-08T21:29:53.528Z,14.20
2018-06-08T21:32:22.436Z,15.47
2018-06-08T21:34:51.069Z,12.40
2018-06-08T21:37:19.865Z,12.80
2018-06-08T21:39:49.455Z,13.27
2018-06-08T21:42:18.318Z,14.03
2018-06-08T21:44:47.239Z,11.50
2018-06-08T21:47:16.126Z,12.37
2018-06-08T21:49:44.974Z,13.03
2018-06-08T21:52:13.814Z,12.23
2018-06-08T21:54:42.690Z,11.77
2018-06-08T21:57:11.550Z,10.93
2018-06-08T21:59:40.572Z,11.43
2018-06-08T22:02:09.434Z,11.10
2018-06-08T22:04:38.278Z,11.80
2018-06-08T22:07:07.167Z,12.07
2018-06-08T22:09:36.039Z,12.27
2018-06-08T22:12:04.910Z,11.40
2018-06-08T22:14:33.775Z,11.53
2018-06-08T22:17:02.663Z,11.57
2018-06-08T22:19:31.511Z,12.00
2018-06-08T22:22:00.385Z,12.90
2018-06-08T22:24:30.331Z,12.90
2018-06-08T22:26:59.428Z,11.87
2018-06-08T22:29:28.342Z,10.70
2018-06-08T22:31:57.742Z,12.23
2018-06-08T22:34:27.089Z,11.70
2018-06-08T22:36:55.950Z,11.47
2018-06-08T22:39:25.686Z,12.23
2018-06-08T22:41:54.768Z,12.37
2018-06-08T22:44:23.626Z,11.27
2018-06-08T22:46:52.504Z,11.73
2018-06-08T22:49:21.202Z,12.07
2018-06-08T22:51:53.413Z,12.40
2018-06-08T22:54:22.273Z,12.00
2018-06-08T22:56:51.122Z,11.10
2018-06-08T22:59:19.986Z,12.03
2018-06-08T23:01:50.514Z,11.50
2018-06-08T23:04:20.019Z,11.57
2018-06-08T23:06:48.877Z,12.00
2018-06-08T23:09:17.721Z,11.93
2018-06-08T23:11:46.365Z,11.43
2018-06-08T23:14:15.073Z,11.17
2018-06-08T23:16:43.922Z,10.50
2018-06-08T23:19:12.847Z,11.27
2018-06-08T23:21:41.682Z,10.57
2018-06-08T23:24:10.614Z,12.10
2018-06-08T23:26:40.449Z,12.87
2018-06-08T23:29:09.346Z,11.57
2018-06-08T23:31:38.055Z,10.57
2018-06-08T23:34:09.253Z,11.47
2018-06-08T23:36:38.106Z,10.33
2018-06-08T23:39:07.803Z,10.83
2018-06-08T23:41:36.654Z,11.87
2018-06-08T23:44:05.570Z,12.30
2018-06-08T23:46:34.406Z,10.87
2018-06-08T23:49:03.300Z,9.80
2018-06-08T23:51:32.167Z,12.03
2018-06-08T23:54:01.130Z,11.80
2018-06-08T23:56:29.957Z,11.20
2018-06-08T23:58:58.849Z,10.30
